Time;durP1;ratioP1;P1;durP2;ratioP2;P2;SDS_P1;SDS_P2;PMS_P1;PMS_P2;Temp;Humidity;BMP_temperature;BMP_pressure;BME280_temperature;BME280_humidity;BME280_pressure;Samples;Min_cycle;Max_cycle;Signal;HPM_P1;HPM_P2
2022/01/24 00:00:08;;;;;;;0.90;0.50;;;2.10;99.90;;;;;;4937433;29;20462;-85
2022/01/24 00:02:34;;;;;;;0.30;0.30;;;2.10;99.90;;;;;;4937387;29;20498;-85
2022/01/24 00:05:01;;;;;;;0.30;0.30;;;2.00;99.90;;;;;;4937308;29;20463;-85
2022/01/24 00:07:28;;;;;;;0.30;0.30;;;1.90;99.90;;;;;;4937385;29;20459;-85
2022/01/24 00:09:59;;;;;;;0.37;0.30;;;1.90;99.90;;;;;;4937337;29;20416;-85
2022/01/24 00:12:34;;;;;;;0.37;0.37;;;1.90;99.90;;;;;;4937305;29;20436;-85
2022/01/24 00:15:10;;;;;;;0.30;0.30;;;1.80;99.90;;;;;;4937407;29;20540;-85
2022/01/24 00:17:39;;;;;;;0.83;0.83;;;1.70;99.90;;;;;;4937194;29;20471;-85
2022/01/24 00:28:22;;;;;;;0.30;0.30;;;1.60;99.90;;;;;;4936876;29;20458;-85
2022/01/24 00:30:49;;;;;;;0.60;0.40;;;1.60;99.90;;;;;;4936402;29;20987;-85
2022/01/24 00:33:18;;;;;;;0.63;0.63;;;1.50;99.90;;;;;;4936869;29;20455;-85
2022/01/24 00:35:45;;;;;;;0.30;0.30;;;1.50;99.90;;;;;;4937074;29;20474;-85
2022/01/24 00:38:12;;;;;;;0.43;0.40;;;1.40;99.90;;;;;;4936790;29;20947;-85
2022/01/24 00:40:41;;;;;;;0.30;0.30;;;1.40;99.90;;;;;;4937753;29;20443;-85
2022/01/24 00:43:18;;;;;;;0.97;0.97;;;1.30;99.90;;;;;;4936730;29;20533;-85
2022/01/24 00:45:57;;;;;;;0.30;0.30;;;1.30;99.90;;;;;;4936830;29;20467;-85
2022/01/24 00:48:33;;;;;;;0.30;0.30;;;1.20;99.90;;;;;;4936633;29;20478;-82
2022/01/24 00:54:01;;;;;;;0.30;0.30;;;1.20;99.90;;;;;;4936888;29;20466;-82
2022/01/24 00:56:28;;;;;;;0.50;0.50;;;1.20;99.90;;;;;;4936391;29;20470;-82
2022/01/24 00:58:55;;;;;;;0.30;0.30;;;1.20;99.90;;;;;;4936429;29;20462;-82
2022/01/24 01:01:23;;;;;;;0.30;0.30;;;1.20;99.90;;;;;;4936637;29;20443;-82
2022/01/24 01:03:49;;;;;;;0.30;0.30;;;1.20;99.90;;;;;;4936410;29;20483;-82
2022/01/24 01:06:17;;;;;;;0.30;0.30;;;1.20;99.90;;;;;;4935981;29;20467;-83
2022/01/24 01:19:48;;;;;;;3.30;0.60;;;1.00;99.90;;;;;;4936287;29;20491;-83
2022/01/24 01:22:15;;;;;;;0.30;0.20;;;1.00;99.90;;;;;;4935852;29;20479;-83
2022/01/24 01:24:48;;;;;;;0.30;0.30;;;0.90;99.90;;;;;;4936112;29;20536;-83
2022/01/24 01:27:18;;;;;;;0.40;0.40;;;0.90;99.90;;;;;;4935911;29;20918;-83
2022/01/24 01:29:52;;;;;;;0.50;0.50;;;0.80;99.90;;;;;;4936159;29;20499;-83
2022/01/24 01:32:35;;;;;;;0.37;0.30;;;0.70;99.90;;;;;;4936097;29;20422;-83
2022/01/24 01:35:20;;;;;;;0.30;0.30;;;0.70;99.90;;;;;;4936125;29;20503;-83
2022/01/24 01:52:17;;;;;;;0.30;0.30;;;0.60;99.90;;;;;;4933357;29;20442;-83
2022/01/24 01:57:13;;;;;;;0.50;0.50;;;0.40;99.90;;;;;;4926088;29;20413;-83
2022/01/24 01:59:40;;;;;;;0.67;0.67;;;0.40;99.90;;;;;;4939628;29;20785;-83
2022/01/24 02:02:06;;;;;;;0.57;0.57;;;0.40;99.90;;;;;;4939506;29;20803;-83
2022/01/24 02:04:35;;;;;;;0.30;0.30;;;0.40;99.90;;;;;;4939384;29;20482;-83
2022/01/24 02:07:02;;;;;;;2.20;0.60;;;0.50;99.90;;;;;;4939447;29;20458;-83
2022/01/24 02:09:30;;;;;;;0.30;0.30;;;0.50;99.90;;;;;;4939444;29;20580;-83
2022/01/24 02:11:56;;;;;;;0.40;0.40;;;0.50;99.90;;;;;;4939368;29;20466;-85
2022/01/24 02:14:29;;;;;;;0.67;0.67;;;0.60;99.90;;;;;;4939424;29;20433;-85
2022/01/24 02:17:01;;;;;;;0.33;0.27;;;0.50;99.90;;;;;;4939698;29;20522;-85
2022/01/24 02:19:35;;;;;;;0.40;0.37;;;0.60;99.90;;;;;;4939692;29;20439;-85
2022/01/24 02:22:38;;;;;;;0.30;0.30;;;0.50;99.90;;;;;;4939272;29;20491;-85
2022/01/24 02:24:57;;;;;;;0.30;0.30;;;0.50;99.90;;;;;;4938766;29;20541;-85
2022/01/24 02:27:27;;;;;;;0.87;0.40;;;0.50;99.90;;;;;;4939327;29;20450;-85
2022/01/24 02:30:08;;;;;;;0.50;0.30;;;0.50;99.90;;;;;;4939460;29;20518;-85
2022/01/24 02:32:38;;;;;;;0.30;0.30;;;0.40;99.90;;;;;;4939073;29;20439;-84
2022/01/24 02:35:05;;;;;;;0.30;0.30;;;0.40;99.90;;;;;;4938808;29;20486;-85
2022/01/24 02:37:34;;;;;;;0.30;0.30;;;0.40;99.90;;;;;;4938996;29;20474;-85
2022/01/24 02:40:07;;;;;;;0.30;0.30;;;0.50;99.90;;;;;;4939029;29;20450;-85
2022/01/24 02:48:24;;;;;;;0.30;0.30;;;0.40;99.90;;;;;;4939159;29;20427;-85
2022/01/24 02:53:35;;;;;;;0.30;0.30;;;0.30;99.90;;;;;;4906612;29;20866;-85
2022/01/24 02:56:02;;;;;;;0.30;0.20;;;0.30;99.90;;;;;;4938033;29;20506;-85
2022/01/24 02:58:29;;;;;;;0.30;0.30;;;0.30;99.90;;;;;;4938522;29;20435;-85
2022/01/24 03:00:57;;;;;;;0.30;0.30;;;0.30;99.90;;;;;;4938674;29;20455;-84
2022/01/24 03:03:24;;;;;;;0.40;0.40;;;0.30;99.90;;;;;;4938469;29;20494;-84
2022/01/24 03:05:52;;;;;;;0.30;0.30;;;0.30;99.90;;;;;;4938198;29;20474;-85
2022/01/24 03:08:21;;;;;;;0.30;0.30;;;0.30;99.90;;;;;;4938495;29;20850;-85
2022/01/24 03:10:51;;;;;;;0.30;0.30;;;0.30;99.90;;;;;;4938335;29;20451;-84
2022/01/24 03:13:30;;;;;;;0.30;0.30;;;0.30;99.90;;;;;;4938828;29;20418;-85
2022/01/24 03:15:58;;;;;;;0.30;0.30;;;0.20;99.90;;;;;;4938454;29;20483;-84
2022/01/24 03:18:26;;;;;;;0.30;0.30;;;0.20;99.90;;;;;;4938321;29;20459;-85
2022/01/24 03:20:53;;;;;;;0.30;0.30;;;0.20;99.90;;;;;;4938458;29;20462;-85
2022/01/24 03:23:22;;;;;;;0.30;0.30;;;0.20;99.90;;;;;;4937653;29;20498;-84
2022/01/24 03:25:50;;;;;;;0.30;0.30;;;0.20;99.90;;;;;;4938180;29;20475;-85
2022/01/24 03:28:17;;;;;;;0.30;0.30;;;0.10;99.90;;;;;;4938904;29;20455;-84
2022/01/24 03:30:45;;;;;;;0.30;0.30;;;0.10;99.90;;;;;;4938030;29;20424;-85
2022/01/24 03:33:12;;;;;;;0.30;0.30;;;0.10;99.90;;;;;;4937989;29;20648;-84
2022/01/24 03:35:41;;;;;;;0.70;0.70;;;0.00;99.90;;;;;;4937846;29;20471;-85
2022/01/24 03:38:08;;;;;;;0.30;0.30;;;0.00;99.90;;;;;;4937795;29;20958;-85
2022/01/24 03:40:35;;;;;;;0.30;0.30;;;0.00;99.90;;;;;;4937680;29;20963;-85
2022/01/24 03:43:03;;;;;;;0.40;0.40;;;-0.10;99.90;;;;;;4937799;29;20516;-85
2022/01/24 03:45:40;;;;;;;0.30;0.30;;;-0.10;99.90;;;;;;4937523;29;20467;-85
2022/01/24 03:48:10;;;;;;;0.30;0.20;;;-0.10;99.90;;;;;;4937725;29;20451;-84
2022/01/24 03:50:37;;;;;;;0.30;0.30;;;-0.10;99.90;;;;;;4937746;29;20439;-85
2022/01/24 03:53:04;;;;;;;0.30;0.30;;;-0.20;99.90;;;;;;4937388;29;20927;-85
2022/01/24 03:55:33;;;;;;;0.30;0.30;;;-0.20;99.90;;;;;;4937537;29;20507;-85
2022/01/24 03:58:00;;;;;;;0.30;0.30;;;-0.20;99.90;;;;;;4937680;29;20860;-85
2022/01/24 04:00:28;;;;;;;0.70;0.50;;;-0.20;99.90;;;;;;4937239;29;20436;-85
2022/01/24 04:02:55;;;;;;;0.50;0.40;;;-0.20;99.90;;;;;;4937412;29;20474;-85
2022/01/24 04:05:22;;;;;;;1.07;1.07;;;-0.20;99.90;;;;;;4937345;29;20486;-85
2022/01/24 04:07:49;;;;;;;0.30;0.30;;;-0.20;99.90;;;;;;4936754;29;20826;-83
2022/01/24 04:10:18;;;;;;;0.30;0.27;;;-0.20;99.90;;;;;;4937407;29;20459;-83
2022/01/24 04:12:45;;;;;;;0.30;0.30;;;-0.20;99.90;;;;;;4937143;29;20466;-83
2022/01/24 04:15:35;;;;;;;0.30;0.30;;;-0.20;99.90;;;;;;4937078;29;20537;-83
2022/01/24 04:18:32;;;;;;;0.30;0.30;;;-0.20;99.90;;;;;;4936896;29;20473;-83
2022/01/24 04:21:20;;;;;;;0.50;0.50;;;-0.10;99.90;;;;;;4937099;29;20459;-83
2022/01/24 04:23:52;;;;;;;0.30;0.30;;;-0.10;99.90;;;;;;4936895;29;20496;-83
2022/01/24 04:26:19;;;;;;;0.40;0.30;;;-0.10;99.90;;;;;;4936651;29;20524;-83
2022/01/24 04:28:45;;;;;;;0.30;0.30;;;-0.10;99.90;;;;;;4936661;29;20462;-83
2022/01/24 04:31:12;;;;;;;0.50;0.43;;;-0.10;99.90;;;;;;4936758;29;20546;-83
2022/01/24 04:33:40;;;;;;;0.47;0.47;;;-0.10;99.90;;;;;;4936805;29;20811;-83
2022/01/24 04:36:07;;;;;;;0.30;0.30;;;-0.10;99.90;;;;;;4936726;29;20474;-83
2022/01/24 04:38:34;;;;;;;0.30;0.30;;;-0.10;99.90;;;;;;4936503;29;20439;-83
2022/01/24 04:41:05;;;;;;;0.30;0.30;;;-0.10;99.90;;;;;;4937207;29;20867;-83
2022/01/24 04:43:47;;;;;;;0.30;0.20;;;-0.10;99.90;;;;;;4937176;29;20558;-83
2022/01/24 04:46:29;;;;;;;0.30;0.30;;;-0.10;99.90;;;;;;4936281;29;20976;-83
2022/01/24 04:51:54;;;;;;;0.30;0.20;;;-0.20;99.90;;;;;;4936630;29;20423;-83
2022/01/24 04:56:56;;;;;;;0.30;0.30;;;-0.20;99.90;;;;;;4936573;29;20399;-83
2022/01/24 04:59:23;;;;;;;0.40;0.40;;;-0.20;99.90;;;;;;4936437;29;20451;-83
2022/01/24 05:01:50;;;;;;;0.30;0.30;;;-0.10;99.90;;;;;;4936403;29;20462;-83
2022/01/24 05:04:18;;;;;;;0.30;0.30;;;-0.20;99.90;;;;;;4936341;29;20489;-83
2022/01/24 05:06:45;;;;;;;0.70;0.70;;;-0.20;99.90;;;;;;4936152;29;20462;-83
2022/01/24 05:09:12;;;;;;;0.30;0.20;;;-0.30;99.90;;;;;;4935924;29;20451;-83
2022/01/24 05:11:45;;;;;;;0.30;0.30;;;-0.30;99.90;;;;;;4936068;29;20966;-83
2022/01/24 05:25:10;;;;;;;0.30;0.30;;;-0.30;99.90;;;;;;4935867;29;20494;-84
2022/01/24 05:27:37;;;;;;;0.30;0.30;;;-0.40;99.90;;;;;;4936193;29;20463;-84
2022/01/24 05:30:04;;;;;;;0.30;0.20;;;-0.40;99.90;;;;;;4936032;29;20812;-84
2022/01/24 05:32:31;;;;;;;0.83;0.83;;;-0.40;99.90;;;;;;4936104;29;20455;-84
2022/01/24 05:34:59;;;;;;;0.30;0.30;;;-0.40;99.90;;;;;;4935745;29;20463;-84
2022/01/24 05:37:25;;;;;;;0.30;0.30;;;-0.40;99.90;;;;;;4936098;29;20821;-84
2022/01/24 05:39:52;;;;;;;0.30;0.30;;;-0.40;99.90;;;;;;4935807;29;20414;-84
2022/01/24 05:42:21;;;;;;;0.30;0.30;;;-0.40;99.90;;;;;;4936067;29;20431;-84
2022/01/24 05:44:49;;;;;;;0.47;0.47;;;-0.50;99.90;;;;;;4935926;29;20570;-84
2022/01/24 05:47:16;;;;;;;0.40;0.40;;;-0.50;99.90;;;;;;4935715;29;20481;-84
2022/01/24 05:49:43;;;;;;;0.30;0.20;;;-0.50;99.90;;;;;;4935968;29;20930;-84
2022/01/24 05:52:14;;;;;;;0.40;0.40;;;-0.50;99.90;;;;;;4935712;29;20952;-84
2022/01/24 05:54:41;;;;;;;0.30;0.30;;;-0.50;99.90;;;;;;4935809;29;20767;-84
2022/01/24 05:57:09;;;;;;;0.30;0.30;;;-0.60;99.90;;;;;;4935925;29;20425;-84
2022/01/24 05:59:36;;;;;;;0.50;0.50;;;-0.60;99.90;;;;;;4935892;29;20454;-84
2022/01/24 06:02:03;;;;;;;0.30;0.30;;;-0.50;99.90;;;;;;4935847;29;20462;-84
2022/01/24 06:04:30;;;;;;;0.40;0.40;;;-0.60;99.90;;;;;;4935427;29;20994;-84
2022/01/24 06:06:57;;;;;;;0.87;0.87;;;-0.60;99.90;;;;;;4935703;29;20834;-84
2022/01/24 06:09:25;;;;;;;0.30;0.30;;;-0.60;99.90;;;;;;4935806;29;20459;-84
2022/01/24 06:11:52;;;;;;;0.37;0.37;;;-0.70;99.90;;;;;;4935470;29;20429;-84
2022/01/24 06:14:19;;;;;;;0.30;0.27;;;-0.70;99.90;;;;;;4935710;29;20451;-84
2022/01/24 06:16:46;;;;;;;0.70;0.70;;;-0.70;99.90;;;;;;4936037;29;20837;-84
2022/01/24 06:19:13;;;;;;;0.30;0.30;;;-0.70;99.90;;;;;;4935378;29;20433;-84
2022/01/24 06:21:40;;;;;;;0.30;0.30;;;-0.70;99.90;;;;;;4935294;29;20457;-84
2022/01/24 06:24:08;;;;;;;0.30;0.30;;;-0.70;99.90;;;;;;4935570;29;20553;-84
2022/01/24 06:26:36;;;;;;;0.30;0.30;;;-0.70;99.90;;;;;;4935704;29;20821;-84
2022/01/24 06:29:03;;;;;;;0.73;0.73;;;-0.70;99.90;;;;;;4935548;29;20817;-84
2022/01/24 06:31:30;;;;;;;0.80;0.80;;;-0.70;99.90;;;;;;4939019;29;20918;-84
2022/01/24 06:33:57;;;;;;;0.87;0.60;;;-0.70;99.90;;;;;;4939236;29;20438;-83
2022/01/24 06:36:24;;;;;;;0.60;0.40;;;-0.70;99.90;;;;;;4938839;29;20461;-84
2022/01/24 06:38:51;;;;;;;0.40;0.40;;;-0.70;99.90;;;;;;4938879;29;20459;-83
2022/01/24 06:41:22;;;;;;;0.30;0.30;;;-0.70;99.90;;;;;;4938919;29;20418;-83
2022/01/24 06:43:51;;;;;;;0.30;0.30;;;-0.70;99.90;;;;;;4938692;29;20924;-83
2022/01/24 06:46:17;;;;;;;0.30;0.30;;;-0.60;99.90;;;;;;4938720;29;20450;-83
2022/01/24 06:48:44;;;;;;;0.30;0.30;;;-0.50;99.90;;;;;;4938455;29;20943;-83
2022/01/24 06:51:11;;;;;;;0.30;0.30;;;-0.50;99.90;;;;;;4938417;29;20426;-83
2022/01/24 06:53:38;;;;;;;0.30;0.30;;;-0.50;99.90;;;;;;4938424;29;20446;-84
2022/01/24 06:56:05;;;;;;;0.30;0.30;;;-0.40;99.90;;;;;;4938318;29;20847;-84
2022/01/24 06:58:32;;;;;;;0.30;0.30;;;-0.40;99.90;;;;;;4938687;29;20487;-83
2022/01/24 07:01:01;;;;;;;0.40;0.40;;;-0.40;99.90;;;;;;4938249;29;20433;-83
2022/01/24 07:03:28;;;;;;;0.30;0.30;;;-0.30;99.90;;;;;;4938698;29;20426;-86
2022/01/24 07:05:55;;;;;;;0.30;0.30;;;-0.30;99.90;;;;;;4938807;29;20495;-86
2022/01/24 07:08:21;;;;;;;0.30;0.30;;;-0.40;99.90;;;;;;4938559;29;20451;-86
2022/01/24 07:10:48;;;;;;;0.30;0.30;;;-0.30;99.90;;;;;;4938536;29;20444;-85
2022/01/24 07:13:16;;;;;;;0.33;0.33;;;-0.40;99.90;;;;;;4938313;29;20434;-86
2022/01/24 07:15:47;;;;;;;0.40;0.40;;;-0.30;99.90;;;;;;4938309;29;20466;-86
2022/01/24 07:21:01;;;;;;;0.30;0.30;;;-0.20;99.90;;;;;;4938270;29;20542;-86
2022/01/24 07:23:28;;;;;;;0.90;0.87;;;-0.20;99.90;;;;;;4938146;29;20461;-86
2022/01/24 07:25:55;;;;;;;0.30;0.30;;;-0.20;99.90;;;;;;4938292;29;20470;-86
2022/01/24 07:28:22;;;;;;;0.70;0.70;;;-0.20;99.90;;;;;;4938338;29;20457;-86
2022/01/24 07:30:49;;;;;;;0.30;0.30;;;-0.20;99.90;;;;;;4937967;29;20422;-86
2022/01/24 07:33:17;;;;;;;0.43;0.43;;;-0.20;99.90;;;;;;4938284;29;20517;-86
2022/01/24 07:35:45;;;;;;;0.50;0.50;;;0.00;99.90;;;;;;4937733;29;20444;-86
2022/01/24 07:38:12;;;;;;;0.30;0.30;;;-0.10;99.90;;;;;;4938069;29;20452;-86
2022/01/24 07:40:41;;;;;;;0.67;0.67;;;-0.10;99.90;;;;;;4937420;29;20463;-84
2022/01/24 07:43:11;;;;;;;0.30;0.30;;;0.00;99.90;;;;;;4937728;29;20532;-83
2022/01/24 07:45:38;;;;;;;0.30;0.30;;;-0.10;99.90;;;;;;4937539;29;20474;-83
2022/01/24 07:48:07;;;;;;;0.30;0.30;;;0.00;99.90;;;;;;4937680;29;20462;-83
2022/01/24 07:50:37;;;;;;;0.63;0.63;;;0.00;99.90;;;;;;4937644;29;20422;-83
2022/01/24 07:53:04;;;;;;;0.30;0.30;;;0.00;99.90;;;;;;4937387;29;20931;-83
2022/01/24 07:55:31;;;;;;;0.30;0.30;;;0.10;99.90;;;;;;4937204;29;20442;-82
2022/01/24 07:57:58;;;;;;;0.30;0.30;;;0.10;99.90;;;;;;4937742;29;20433;-82
2022/01/24 08:00:24;;;;;;;0.37;0.37;;;0.10;99.90;;;;;;4937098;29;20445;-83
2022/01/24 08:02:51;;;;;;;0.37;0.37;;;0.10;99.90;;;;;;4937535;29;20436;-87
2022/01/24 08:05:18;;;;;;;2.10;0.53;;;0.20;99.90;;;;;;4937389;29;20490;-87
2022/01/24 08:07:46;;;;;;;0.40;0.40;;;0.30;99.90;;;;;;4938100;29;20915;-87
2022/01/24 08:10:13;;;;;;;0.77;0.73;;;0.40;99.90;;;;;;4937420;29;20401;-87
2022/01/24 08:12:42;;;;;;;0.30;0.20;;;0.50;99.90;;;;;;4937821;29;20435;-87
2022/01/24 08:15:12;;;;;;;0.30;0.30;;;0.50;99.90;;;;;;4937900;29;20824;-87
2022/01/24 08:17:39;;;;;;;0.87;0.87;;;0.50;99.90;;;;;;4938511;29;20919;-86
2022/01/24 08:20:06;;;;;;;0.50;0.50;;;0.70;99.90;;;;;;4938077;29;20519;-87
2022/01/24 08:22:33;;;;;;;0.30;0.30;;;0.80;99.90;;;;;;4937024;29;20498;-83
2022/01/24 08:25:03;;;;;;;0.33;0.33;;;0.90;99.90;;;;;;4936807;29;20506;-82
2022/01/24 08:27:30;;;;;;;0.40;0.30;;;1.00;99.90;;;;;;4936951;29;20459;-82
2022/01/24 08:29:57;;;;;;;1.13;1.13;;;1.10;99.90;;;;;;4936683;29;20418;-82
2022/01/24 08:32:23;;;;;;;0.30;0.30;;;1.10;99.90;;;;;;4936598;29;20439;-83
2022/01/24 08:34:50;;;;;;;0.30;0.20;;;1.20;99.90;;;;;;4936729;29;20453;-83
2022/01/24 08:37:17;;;;;;;0.30;0.30;;;1.20;99.90;;;;;;4936652;29;20944;-82
2022/01/24 08:39:45;;;;;;;0.30;0.30;;;1.30;99.90;;;;;;4936788;29;20482;-82
2022/01/24 08:42:17;;;;;;;0.40;0.40;;;1.50;99.90;;;;;;4936949;29;20506;-83
2022/01/24 08:47:37;;;;;;;0.57;0.57;;;1.70;99.90;;;;;;4891962;29;20566;-83
2022/01/24 08:50:06;;;;;;;0.73;0.73;;;1.80;99.90;;;;;;4936517;29;20470;-82
2022/01/24 08:52:33;;;;;;;0.93;0.93;;;1.90;99.90;;;;;;4936414;29;20455;-87
2022/01/24 08:55:00;;;;;;;0.30;0.30;;;2.10;99.90;;;;;;4937337;29;20475;-87
2022/01/24 08:57:28;;;;;;;0.30;0.20;;;2.30;99.90;;;;;;4936366;29;20452;-87
2022/01/24 08:59:55;;;;;;;0.57;0.57;;;2.70;99.90;;;;;;4936517;29;20458;-86
2022/01/24 09:02:23;;;;;;;0.30;0.20;;;3.50;99.90;;;;;;4936426;29;20811;-86
2022/01/24 09:04:50;;;;;;;0.40;0.40;;;4.40;99.90;;;;;;4936407;29;20518;-86
2022/01/24 09:07:19;;;;;;;0.67;0.67;;;5.50;99.90;;;;;;4936389;29;20447;-86
2022/01/24 09:09:47;;;;;;;0.40;0.40;;;6.50;99.90;;;;;;4936479;29;20550;-86
2022/01/24 09:12:14;;;;;;;0.40;0.30;;;7.70;99.90;;;;;;4936200;29;20435;-86
2022/01/24 09:14:47;;;;;;;0.40;0.30;;;8.40;99.90;;;;;;4936421;29;20462;-86
2022/01/24 09:17:14;;;;;;;0.37;0.27;;;8.70;99.90;;;;;;4936547;29;20439;-86
2022/01/24 09:19:41;;;;;;;1.80;0.30;;;9.00;99.90;;;;;;4936474;29;20946;-86
2022/01/24 09:22:08;;;;;;;0.63;0.50;;;9.70;99.90;;;;;;4935834;29;20487;-86
2022/01/24 09:24:35;;;;;;;0.40;0.40;;;10.60;99.90;;;;;;4936596;29;20515;-85
2022/01/24 09:27:02;;;;;;;1.97;1.87;;;11.60;99.90;;;;;;4936075;29;20804;-86
2022/01/24 09:29:29;;;;;;;1.10;0.50;;;12.30;97.90;;;;;;4936004;29;20961;-86
2022/01/24 09:31:58;;;;;;;0.70;0.30;;;12.60;96.00;;;;;;4936426;29;20459;-86
2022/01/24 09:34:24;;;;;;;1.07;1.07;;;13.20;93.30;;;;;;4936276;29;20426;-86
2022/01/24 09:36:52;;;;;;;2.87;0.60;;;13.60;91.10;;;;;;4936853;29;20793;-86
2022/01/24 09:39:19;;;;;;;0.97;0.60;;;14.00;89.50;;;;;;4936443;29;20421;-85
2022/01/24 09:41:47;;;;;;;1.37;1.13;;;14.30;87.20;;;;;;4936007;29;20434;-85
2022/01/24 09:44:15;;;;;;;4.97;0.90;;;14.00;83.60;;;;;;4935468;29;20835;-85
2022/01/24 09:46:44;;;;;;;1.83;0.90;;;14.00;82.00;;;;;;4935820;29;20478;-85
2022/01/24 09:49:13;;;;;;;0.47;0.47;;;13.40;82.40;;;;;;4936068;29;20801;-85
2022/01/24 09:51:40;;;;;;;1.33;0.80;;;12.80;82.80;;;;;;4935995;29;20495;-85
2022/01/24 09:54:07;;;;;;;1.10;0.80;;;12.10;86.00;;;;;;4935982;29;20444;-85
2022/01/24 09:56:34;;;;;;;1.73;0.80;;;11.30;87.10;;;;;;4936133;29;20463;-85
2022/01/24 09:59:02;;;;;;;0.53;0.53;;;10.80;89.00;;;;;;4935881;29;20435;-85
2022/01/24 10:01:30;;;;;;;1.70;0.70;;;10.50;90.20;;;;;;4935675;29;20922;-84
2022/01/24 10:04:15;;;;;;;1.53;0.60;;;10.30;91.20;;;;;;4936021;29;20502;-85
2022/01/24 10:07:03;;;;;;;2.53;0.77;;;10.50;90.90;;;;;;4939110;29;20518;-84
2022/01/24 10:09:36;;;;;;;0.70;0.70;;;11.40;89.40;;;;;;4939631;29;20876;-85
2022/01/24 10:12:18;;;;;;;1.27;0.47;;;12.30;85.80;;;;;;4939174;29;20788;-85
2022/01/24 10:17:31;;;;;;;0.67;0.40;;;13.70;78.00;;;;;;4939623;29;20484;-85
2022/01/24 10:20:27;;;;;;;0.60;0.53;;;14.00;79.50;;;;;;4939021;29;20443;-85
2022/01/24 10:23:16;;;;;;;1.30;0.80;;;13.70;77.00;;;;;;4938950;29;21006;-85
2022/01/24 10:25:51;;;;;;;0.50;0.43;;;12.60;78.80;;;;;;4933412;29;20594;-83
2022/01/24 10:28:28;;;;;;;0.73;0.73;;;11.50;81.60;;;;;;4938843;29;20903;-83
2022/01/24 10:31:07;;;;;;;2.40;0.63;;;10.30;86.20;;;;;;4938772;29;20443;-82
2022/01/24 10:33:51;;;;;;;0.40;0.30;;;9.50;90.10;;;;;;4938697;29;20914;-83
2022/01/24 10:36:29;;;;;;;7.93;0.60;;;8.90;91.30;;;;;;4938913;29;20471;-83
2022/01/24 10:39:20;;;;;;;0.40;0.30;;;8.60;92.80;;;;;;4938800;29;20460;-83
2022/01/24 10:44:33;;;;;;;0.30;0.27;;;8.10;93.70;;;;;;4938717;29;20494;-83
2022/01/24 10:47:19;;;;;;;0.80;0.47;;;7.90;94.90;;;;;;4938680;29;20479;-83
2022/01/24 10:49:47;;;;;;;0.30;0.20;;;7.60;95.20;;;;;;4938470;29;20979;-84
2022/01/24 10:52:18;;;;;;;0.30;0.30;;;7.30;96.20;;;;;;4938700;29;20467;-83
2022/01/24 10:54:46;;;;;;;1.20;0.43;;;7.20;96.50;;;;;;4939187;29;20486;-83
2022/01/24 10:57:22;;;;;;;0.30;0.30;;;7.00;97.60;;;;;;4938604;29;20486;-84
2022/01/24 10:59:49;;;;;;;2.00;0.40;;;6.90;98.20;;;;;;4938238;29;20443;-84
2022/01/24 11:02:17;;;;;;;0.30;0.30;;;6.80;98.80;;;;;;4938530;29;20439;-84
2022/01/24 11:04:44;;;;;;;0.40;0.30;;;6.70;99.50;;;;;;4939019;29;20494;-84
2022/01/24 11:07:11;;;;;;;0.60;0.30;;;6.70;99.80;;;;;;4938329;29;20475;-84
2022/01/24 11:09:41;;;;;;;0.30;0.30;;;6.70;99.90;;;;;;4938352;29;20420;-84
2022/01/24 11:12:11;;;;;;;0.50;0.30;;;6.50;99.90;;;;;;4938534;29;20435;-84
2022/01/24 11:14:40;;;;;;;0.40;0.30;;;6.50;99.90;;;;;;4938287;29;20482;-84
2022/01/24 11:17:09;;;;;;;0.30;0.20;;;6.40;99.90;;;;;;4937911;29;20443;-85
2022/01/24 11:19:41;;;;;;;0.50;0.43;;;6.30;99.90;;;;;;4938327;29;20463;-86
2022/01/24 11:22:19;;;;;;;0.30;0.30;;;6.10;99.90;;;;;;4937950;29;20474;-85
2022/01/24 11:24:54;;;;;;;0.30;0.20;;;6.00;99.90;;;;;;4937912;29;20475;-85
2022/01/24 11:27:21;;;;;;;0.40;0.40;;;6.00;99.90;;;;;;4937934;29;20486;-85
2022/01/24 11:29:50;;;;;;;0.30;0.30;;;6.00;99.90;;;;;;4938016;29;20455;-85
2022/01/24 11:32:23;;;;;;;0.70;0.40;;;6.10;99.90;;;;;;4937856;29;20427;-85
2022/01/24 11:34:52;;;;;;;1.80;0.53;;;6.00;99.90;;;;;;4938045;29;20482;-86
2022/01/24 11:37:34;;;;;;;0.30;0.30;;;5.90;99.90;;;;;;4938096;29;20439;-85
2022/01/24 11:40:05;;;;;;;0.30;0.30;;;5.90;99.90;;;;;;4937959;29;20435;-85
2022/01/24 11:42:35;;;;;;;0.30;0.20;;;6.00;99.90;;;;;;4937963;29;20457;-85
2022/01/24 11:45:05;;;;;;;0.30;0.20;;;6.00;99.90;;;;;;4937439;29;20483;-84
2022/01/24 11:47:32;;;;;;;0.40;0.37;;;5.90;99.90;;;;;;4937748;29;20432;-84
2022/01/24 11:49:59;;;;;;;0.30;0.30;;;5.80;99.90;;;;;;4937949;29;20415;-84
2022/01/24 11:52:33;;;;;;;0.43;0.43;;;5.70;99.90;;;;;;4937862;29;20428;-84
2022/01/24 11:55:14;;;;;;;0.30;0.30;;;5.70;99.90;;;;;;4937562;29;20525;-84
2022/01/24 11:57:44;;;;;;;0.50;0.47;;;5.60;99.90;;;;;;4937467;29;20526;-83
2022/01/24 12:00:23;;;;;;;0.30;0.20;;;5.60;99.90;;;;;;4937470;29;20431;-84
2022/01/24 12:02:52;;;;;;;0.40;0.40;;;5.50;99.90;;;;;;4937430;29;20438;-84
2022/01/24 12:05:20;;;;;;;0.30;0.30;;;5.50;99.90;;;;;;4937200;29;20531;-84
2022/01/24 12:07:50;;;;;;;0.30;0.30;;;5.60;99.90;;;;;;4937391;29;20879;-84
2022/01/24 12:10:41;;;;;;;0.30;0.20;;;5.50;99.90;;;;;;4937942;29;20455;-84
2022/01/24 12:13:18;;;;;;;0.33;0.30;;;5.60;99.90;;;;;;4937246;29;20526;-84
2022/01/24 12:16:07;;;;;;;0.30;0.30;;;5.70;99.90;;;;;;4936821;29;20467;-84
2022/01/24 12:19:00;;;;;;;0.30;0.20;;;5.70;99.90;;;;;;4937068;29;20450;-84
2022/01/24 12:21:29;;;;;;;0.80;0.40;;;5.70;99.90;;;;;;4936926;29;20447;-85
2022/01/24 12:23:59;;;;;;;0.30;0.30;;;5.50;99.90;;;;;;4937036;29;20447;-83
2022/01/24 12:26:30;;;;;;;0.30;0.30;;;5.40;99.90;;;;;;4936886;29;20495;-84
2022/01/24 12:29:02;;;;;;;1.57;0.60;;;5.30;99.90;;;;;;4936120;29;20448;-84
2022/01/24 12:31:32;;;;;;;0.30;0.30;;;5.30;99.90;;;;;;4936930;29;20443;-85
2022/01/24 12:34:21;;;;;;;0.73;0.73;;;5.40;99.90;;;;;;4936801;29;20931;-84
2022/01/24 12:37:12;;;;;;;0.40;0.40;;;5.20;99.90;;;;;;4936890;29;20975;-84
2022/01/24 12:39:53;;;;;;;0.40;0.37;;;5.30;99.90;;;;;;4922969;29;20817;-84
2022/01/24 12:48:10;;;;;;;0.30;0.30;;;5.20;99.90;;;;;;4936752;29;20902;-84
2022/01/24 12:50:41;;;;;;;0.30;0.30;;;5.20;99.90;;;;;;4936361;29;20437;-86
2022/01/24 12:53:12;;;;;;;0.30;0.20;;;5.20;99.90;;;;;;4936785;29;20427;-86
2022/01/24 12:55:39;;;;;;;0.30;0.30;;;5.10;99.90;;;;;;4936780;29;20471;-86
2022/01/24 12:58:07;;;;;;;0.40;0.40;;;5.00;99.90;;;;;;4936543;29;20408;-86
2022/01/24 13:00:34;;;;;;;0.30;0.30;;;5.00;99.90;;;;;;4936822;29;20775;-86
2022/01/24 13:03:01;;;;;;;0.30;0.20;;;5.10;99.90;;;;;;4936920;29;20431;-86
2022/01/24 13:05:28;;;;;;;0.30;0.30;;;5.30;99.90;;;;;;4936248;29;20995;-86
2022/01/24 13:07:57;;;;;;;0.30;0.30;;;5.30;99.90;;;;;;4936231;29;20455;-86
2022/01/24 13:10:27;;;;;;;0.30;0.30;;;5.30;99.90;;;;;;4936561;29;20783;-86
2022/01/24 13:12:59;;;;;;;0.30;0.20;;;5.20;99.90;;;;;;4936285;29;20479;-86
2022/01/24 13:21:07;;;;;;;0.30;0.27;;;5.30;99.90;;;;;;4936161;29;20512;-86
2022/01/24 13:23:35;;;;;;;4.47;1.23;;;5.20;99.90;;;;;;4935978;29;20577;-86
2022/01/24 13:26:05;;;;;;;0.30;0.20;;;5.00;99.90;;;;;;4936263;29;20495;-86
2022/01/24 13:28:32;;;;;;;0.30;0.20;;;5.00;99.90;;;;;;4936122;29;20899;-86
2022/01/24 13:31:02;;;;;;;0.30;0.20;;;5.00;99.90;;;;;;4935980;29;20907;-85
2022/01/24 13:33:30;;;;;;;0.40;0.33;;;4.90;99.90;;;;;;4935921;29;20784;-86
2022/01/24 13:35:59;;;;;;;0.30;0.20;;;4.90;99.90;;;;;;4936158;29;20477;-85
2022/01/24 13:38:30;;;;;;;0.30;0.30;;;4.80;99.90;;;;;;4936770;29;20446;-85
2022/01/24 13:41:01;;;;;;;0.70;0.70;;;4.90;99.90;;;;;;4940137;29;20455;-85
2022/01/24 13:43:36;;;;;;;0.50;0.40;;;5.00;99.90;;;;;;4940676;29;20920;-85
2022/01/24 13:46:06;;;;;;;0.30;0.30;;;5.00;99.90;;;;;;4939583;29;21041;-85
2022/01/24 13:48:40;;;;;;;0.50;0.50;;;5.00;99.90;;;;;;4940084;29;20440;-85
2022/01/24 13:51:07;;;;;;;0.30;0.20;;;4.90;99.90;;;;;;4939873;29;20439;-85
2022/01/24 13:53:38;;;;;;;0.30;0.30;;;4.90;99.90;;;;;;4940044;29;20454;-86
2022/01/24 13:56:26;;;;;;;0.30;0.20;;;4.90;99.90;;;;;;4939684;29;20835;-85
2022/01/24 13:59:06;;;;;;;0.63;0.63;;;5.00;99.90;;;;;;4939433;29;20431;-84
2022/01/24 14:01:37;;;;;;;1.13;1.03;;;5.00;99.90;;;;;;4939825;29;20470;-84
2022/01/24 14:04:06;;;;;;;0.47;0.47;;;5.10;99.90;;;;;;4939792;29;20442;-84
2022/01/24 14:06:34;;;;;;;0.40;0.40;;;5.10;99.90;;;;;;4939374;29;20494;-84
2022/01/24 14:09:07;;;;;;;0.30;0.20;;;5.10;99.90;;;;;;4939305;29;20412;-84
2022/01/24 14:11:43;;;;;;;0.30;0.20;;;5.10;99.90;;;;;;4939932;29;20440;-84
2022/01/24 14:14:13;;;;;;;0.37;0.37;;;5.00;99.90;;;;;;4939476;29;20466;-84
2022/01/24 14:16:54;;;;;;;0.30;0.30;;;5.00;99.90;;;;;;4939347;29;20462;-86
2022/01/24 14:19:52;;;;;;;0.50;0.30;;;5.20;99.90;;;;;;4939163;29;21006;-86
2022/01/24 14:22:19;;;;;;;0.30;0.30;;;5.20;99.90;;;;;;4932884;29;20917;-86
2022/01/24 14:24:53;;;;;;;0.50;0.50;;;5.20;99.90;;;;;;4939580;29;20467;-86
2022/01/24 14:27:38;;;;;;;0.40;0.40;;;5.20;99.90;;;;;;4939354;29;20463;-86
2022/01/24 14:53:29;;;;;;;0.30;0.30;;;5.20;99.90;;;;;;5112681;23;20530;-85
2022/01/24 15:16:47;;;;;;;0.30;0.20;;;5.30;99.90;;;;;;4995254;23;20500;-84
2022/01/24 15:25:19;;;;;;;0.30;0.30;;;5.10;99.90;;;;;;4902348;29;20416;-84